DLH430 EDDF-KORD
Flight info
| Callsign | DLH430 |
|---|---|
| Flight time | N/A |
| Altitude | 36000 |
| Route | OBOKA3M/25C OBOKA Z28 DIBIR DCT BUDIP DCT RAVLO Y70 OTBED DCT ABLUC DCT OZRAT DCT WETFI DCT DODIG DCT REVNU DCT PIKIL/M081F360 NATA JANJO/N0476F360 N714B YBC DCT IGSAS DCT KAPUX DCT HOCKE DCT FNT WYNDE3 |
| Aircraft | B748/H-SADE2E3GHIJ3J4J5M1P2RWXYZ/LB1D1 |
Departure
| Time | 2026-05-04 13:24 |
|---|---|
| Airport | Frankfurt Main Airport (EDDF) |
Arrival
| Time | N/A |
|---|---|
| Airport | Chicago O'Hare International Airport (KORD) |
| Time | Latitude | Longitude | Altitude | Speed | Heading |
|---|---|---|---|---|---|
| 2026-05-04 12:47 | 50.04724 | 8.56276 | 366 ft | 0 kts | 340° |
| 2026-05-04 13:08 | 50.04706 | 8.56287 | 366 ft | 4 kts | 340° |
| 2026-05-04 13:08 | 50.04684 | 8.56299 | 369 ft | 2 kts | 340° |
| 2026-05-04 13:08 | 50.04662 | 8.56317 | 369 ft | 4 kts | 314° |
| 2026-05-04 13:09 | 50.04650 | 8.56350 | 366 ft | 4 kts | 269° |
| 2026-05-04 13:09 | 50.04655 | 8.56387 | 366 ft | 4 kts | 250° |
| 2026-05-04 13:09 | 50.04662 | 8.56414 | 368 ft | 0 kts | 250° |
| 2026-05-04 13:14 | 50.04660 | 8.56408 | 368 ft | 2 kts | 250° |
| 2026-05-04 13:15 | 50.04648 | 8.56356 | 371 ft | 8 kts | 250° |
| 2026-05-04 13:15 | 50.04622 | 8.56244 | 367 ft | 14 kts | 250° |
| 2026-05-04 13:15 | 50.04586 | 8.56091 | 371 ft | 14 kts | 250° |
| 2026-05-04 13:15 | 50.04548 | 8.55977 | 372 ft | 10 kts | 223° |
| 2026-05-04 13:16 | 50.04494 | 8.55941 | 371 ft | 8 kts | 199° |
| 2026-05-04 13:16 | 50.04449 | 8.55919 | 371 ft | 6 kts | 193° |
| 2026-05-04 13:16 | 50.04397 | 8.55911 | 371 ft | 9 kts | 180° |
| 2026-05-04 13:16 | 50.04321 | 8.55939 | 368 ft | 14 kts | 160° |
| 2026-05-04 13:17 | 50.04263 | 8.56032 | 369 ft | 10 kts | 92° |
| 2026-05-04 13:17 | 50.04281 | 8.56118 | 368 ft | 8 kts | 69° |
| 2026-05-04 13:17 | 50.04287 | 8.56194 | 367 ft | 6 kts | 109° |
| 2026-05-04 13:17 | 50.04264 | 8.56226 | 368 ft | 4 kts | 156° |
| 2026-05-04 13:18 | 50.04224 | 8.56250 | 367 ft | 8 kts | 158° |
| 2026-05-04 13:18 | 50.04171 | 8.56289 | 368 ft | 9 kts | 144° |
| 2026-05-04 13:18 | 50.04150 | 8.56377 | 367 ft | 9 kts | 80° |
| 2026-05-04 13:18 | 50.04177 | 8.56488 | 368 ft | 13 kts | 68° |
| 2026-05-04 13:19 | 50.04212 | 8.56633 | 370 ft | 16 kts | 70° |
| 2026-05-04 13:19 | 50.04253 | 8.56805 | 371 ft | 18 kts | 70° |
| 2026-05-04 13:19 | 50.04300 | 8.57006 | 373 ft | 22 kts | 70° |
| 2026-05-04 13:19 | 50.04356 | 8.57241 | 376 ft | 25 kts | 68° |
| 2026-05-04 13:20 | 50.04421 | 8.57505 | 371 ft | 27 kts | 69° |
| 2026-05-04 13:20 | 50.04479 | 8.57754 | 377 ft | 22 kts | 70° |
| 2026-05-04 13:20 | 50.04529 | 8.57965 | 377 ft | 20 kts | 70° |
| 2026-05-04 13:20 | 50.04577 | 8.58169 | 377 ft | 19 kts | 69° |
| 2026-05-04 13:21 | 50.04618 | 8.58336 | 378 ft | 15 kts | 69° |
| 2026-05-04 13:21 | 50.04651 | 8.58482 | 378 ft | 14 kts | 78° |
| 2026-05-04 13:21 | 50.04624 | 8.58572 | 379 ft | 7 kts | 152° |
| 2026-05-04 13:21 | 50.04584 | 8.58594 | 379 ft | 5 kts | 161° |
| 2026-05-04 13:22 | 50.04555 | 8.58609 | 380 ft | 5 kts | 162° |
| 2026-05-04 13:22 | 50.04521 | 8.58618 | 380 ft | 6 kts | 180° |
| 2026-05-04 13:22 | 50.04490 | 8.58591 | 380 ft | 6 kts | 229° |
| 2026-05-04 13:22 | 50.04482 | 8.58567 | 380 ft | 0 kts | 248° |
| 2026-05-04 13:23 | 50.04471 | 8.58521 | 380 ft | 21 kts | 250° |
| 2026-05-04 13:23 | 50.04346 | 8.57997 | 376 ft | 82 kts | 249° |
| 2026-05-04 13:23 | 50.04084 | 8.56903 | 374 ft | 132 kts | 251° |
| 2026-05-04 13:23 | 50.03725 | 8.55394 | 365 ft | 169 kts | 250° |
| 2026-05-04 13:24 | 50.03315 | 8.53602 | 732 ft | 180 kts | 248° |
| 2026-05-04 13:24 | 50.02883 | 8.51694 | 1212 ft | 190 kts | 250° |
| 2026-05-04 13:24 | 50.02433 | 8.49746 | 1853 ft | 193 kts | 249° |
| 2026-05-04 13:25 | 50.01522 | 8.45739 | 2858 ft | 197 kts | 250° |
| 2026-05-04 13:25 | 50.01057 | 8.43729 | 3385 ft | 199 kts | 250° |
| 2026-05-04 13:25 | 50.00589 | 8.41706 | 3887 ft | 199 kts | 250° |
| 2026-05-04 13:25 | 50.00109 | 8.39676 | 4350 ft | 202 kts | 250° |
| 2026-05-04 13:26 | 49.99613 | 8.37625 | 4880 ft | 204 kts | 250° |
| 2026-05-04 13:26 | 49.99099 | 8.35560 | 5392 ft | 206 kts | 250° |
| 2026-05-04 13:26 | 49.98567 | 8.33464 | 5777 ft | 213 kts | 249° |
| 2026-05-04 13:26 | 49.98007 | 8.31277 | 6027 ft | 223 kts | 251° |
| 2026-05-04 13:27 | 49.97923 | 8.28837 | 6237 ft | 237 kts | 284° |
| 2026-05-04 13:27 | 49.98733 | 8.26511 | 6484 ft | 257 kts | 308° |
| 2026-05-04 13:27 | 49.99959 | 8.24406 | 7036 ft | 268 kts | 310° |
| 2026-05-04 13:27 | 50.01224 | 8.22227 | 7654 ft | 275 kts | 307° |
| 2026-05-04 13:28 | 50.02428 | 8.19875 | 8205 ft | 284 kts | 303° |
| 2026-05-04 13:28 | 50.03629 | 8.17404 | 8843 ft | 290 kts | 304° |
| 2026-05-04 13:28 | 50.04878 | 8.14910 | 9504 ft | 295 kts | 305° |
| 2026-05-04 13:28 | 50.06169 | 8.12378 | 9946 ft | 302 kts | 305° |
| 2026-05-04 13:29 | 50.07472 | 8.09807 | 9983 ft | 300 kts | 304° |
| 2026-05-04 13:29 | 50.08757 | 8.07254 | 9985 ft | 299 kts | 304° |
| 2026-05-04 13:29 | 50.10036 | 8.04706 | 9991 ft | 300 kts | 304° |
| 2026-05-04 13:29 | 50.11367 | 8.02046 | 10014 ft | 325 kts | 304° |
| 2026-05-04 13:30 | 50.12811 | 7.99168 | 10265 ft | 343 kts | 305° |
| 2026-05-04 13:30 | 50.14274 | 7.96265 | 10910 ft | 349 kts | 305° |
| 2026-05-04 13:30 | 50.15682 | 7.93460 | 11596 ft | 353 kts | 305° |
| 2026-05-04 13:30 | 50.17207 | 7.90410 | 12353 ft | 356 kts | 305° |
| 2026-05-04 13:31 | 50.18737 | 7.87347 | 13092 ft | 360 kts | 305° |
| 2026-05-04 13:31 | 50.20282 | 7.84254 | 13829 ft | 364 kts | 306° |
| 2026-05-04 13:31 | 50.21846 | 7.81120 | 14478 ft | 368 kts | 305° |
| 2026-05-04 13:31 | 50.23426 | 7.77948 | 15093 ft | 372 kts | 305° |
| 2026-05-04 13:32 | 50.25099 | 7.74826 | 15720 ft | 379 kts | 315° |
| 2026-05-04 13:32 | 50.27276 | 7.72463 | 16366 ft | 386 kts | 331° |
| 2026-05-04 13:32 | 50.29747 | 7.70732 | 17016 ft | 391 kts | 336° |
| 2026-05-04 13:32 | 50.32296 | 7.69172 | 17671 ft | 395 kts | 336° |
| 2026-05-04 13:33 | 50.34836 | 7.67484 | 18321 ft | 399 kts | 333° |
| 2026-05-04 13:33 | 50.37370 | 7.65665 | 18872 ft | 402 kts | 333° |
| 2026-05-04 13:33 | 50.39936 | 7.63864 | 19424 ft | 407 kts | 334° |
| 2026-05-04 13:33 | 50.42543 | 7.62105 | 20023 ft | 410 kts | 334° |
| 2026-05-04 13:34 | 50.45168 | 7.60324 | 20602 ft | 413 kts | 333° |
| 2026-05-04 13:34 | 50.47805 | 7.58494 | 21157 ft | 416 kts | 333° |
| 2026-05-04 13:34 | 50.50461 | 7.56647 | 21705 ft | 419 kts | 333° |
| 2026-05-04 13:34 | 50.53145 | 7.54796 | 22236 ft | 423 kts | 333° |
| 2026-05-04 13:35 | 50.55832 | 7.52879 | 22776 ft | 424 kts | 327° |
| 2026-05-04 13:35 | 50.60814 | 7.47852 | 23779 ft | 429 kts | 323° |
| 2026-05-04 13:35 | 50.63317 | 7.45265 | 24195 ft | 432 kts | 323° |
| 2026-05-04 13:36 | 50.65843 | 7.42686 | 24625 ft | 434 kts | 323° |
| 2026-05-04 13:36 | 50.68387 | 7.40090 | 25036 ft | 437 kts | 323° |
| 2026-05-04 13:36 | 50.70936 | 7.37467 | 25437 ft | 439 kts | 323° |
| 2026-05-04 13:36 | 50.73447 | 7.34714 | 25811 ft | 438 kts | 315° |
| 2026-05-04 13:37 | 50.75538 | 7.31371 | 26198 ft | 433 kts | 303° |
| 2026-05-04 13:37 | 50.77334 | 7.27475 | 26578 ft | 433 kts | 301° |
| 2026-05-04 13:37 | 50.79049 | 7.23628 | 26962 ft | 435 kts | 300° |
| 2026-05-04 13:37 | 50.80226 | 7.20973 | 27221 ft | 437 kts | 300° |
| 2026-05-04 13:38 | 50.82576 | 7.15694 | 27715 ft | 440 kts | 300° |
| 2026-05-04 13:38 | 50.84326 | 7.11777 | 28073 ft | 443 kts | 300° |
| 2026-05-04 13:38 | 50.86100 | 7.07787 | 28455 ft | 445 kts | 300° |
| 2026-05-04 13:38 | 50.87886 | 7.03752 | 28849 ft | 448 kts | 300° |
| 2026-05-04 13:39 | 50.89679 | 6.99701 | 29205 ft | 451 kts | 300° |
| 2026-05-04 13:39 | 50.91486 | 6.95622 | 29581 ft | 454 kts | 300° |
| 2026-05-04 13:39 | 50.93305 | 6.91512 | 29951 ft | 457 kts | 300° |
| 2026-05-04 13:39 | 50.95129 | 6.87380 | 30290 ft | 459 kts | 300° |
| 2026-05-04 13:40 | 50.96963 | 6.83214 | 30572 ft | 461 kts | 300° |
| 2026-05-04 13:40 | 50.98803 | 6.79035 | 30858 ft | 463 kts | 300° |
| 2026-05-04 13:40 | 51.00650 | 6.74831 | 31138 ft | 465 kts | 299° |
| 2026-05-04 13:40 | 51.02501 | 6.70609 | 31414 ft | 466 kts | 299° |
| 2026-05-04 13:41 | 51.04353 | 6.66380 | 31690 ft | 468 kts | 299° |
| 2026-05-04 13:41 | 51.06213 | 6.62125 | 31986 ft | 469 kts | 299° |
| 2026-05-04 13:41 | 51.08040 | 6.57938 | 32239 ft | 471 kts | 299° |
| 2026-05-04 13:42 | 51.11776 | 6.49354 | 32747 ft | 473 kts | 299° |
| 2026-05-04 13:42 | 51.13652 | 6.45031 | 33010 ft | 474 kts | 299° |
| 2026-05-04 13:42 | 51.15527 | 6.40703 | 33234 ft | 476 kts | 299° |
| 2026-05-04 13:42 | 51.17406 | 6.36362 | 33517 ft | 477 kts | 298° |
| 2026-05-04 13:43 | 51.19287 | 6.32005 | 33778 ft | 478 kts | 298° |
| 2026-05-04 13:43 | 51.21171 | 6.27635 | 33985 ft | 479 kts | 298° |
| 2026-05-04 13:43 | 51.23058 | 6.23253 | 34196 ft | 480 kts | 298° |
| 2026-05-04 13:43 | 51.24947 | 6.18856 | 34413 ft | 481 kts | 298° |
| 2026-05-04 13:44 | 51.26839 | 6.14447 | 34606 ft | 482 kts | 298° |
| 2026-05-04 13:44 | 51.28669 | 6.10040 | 34869 ft | 479 kts | 297° |
| 2026-05-04 13:44 | 51.30489 | 6.05587 | 35125 ft | 480 kts | 298° |
| 2026-05-04 13:44 | 51.32338 | 6.01142 | 35363 ft | 480 kts | 298° |
| 2026-05-04 13:45 | 51.34173 | 5.96677 | 35609 ft | 479 kts | 297° |
| 2026-05-04 13:45 | 51.35984 | 5.92202 | 35829 ft | 479 kts | 297° |
| 2026-05-04 13:45 | 51.37810 | 5.87719 | 35977 ft | 478 kts | 300° |
| 2026-05-04 13:45 | 51.39788 | 5.83473 | 35964 ft | 478 kts | 302° |
| 2026-05-04 13:46 | 51.43827 | 5.75042 | 35989 ft | 476 kts | 302° |
| 2026-05-04 13:46 | 51.47777 | 5.66639 | 35954 ft | 475 kts | 302° |
| 2026-05-04 13:47 | 51.51767 | 5.58203 | 35974 ft | 475 kts | 302° |
| 2026-05-04 13:47 | 51.55743 | 5.49727 | 35971 ft | 475 kts | 302° |
| 2026-05-04 13:48 | 51.59720 | 5.41241 | 35971 ft | 475 kts | 302° |
| 2026-05-04 13:48 | 51.63684 | 5.32745 | 35974 ft | 475 kts | 302° |
| 2026-05-04 13:49 | 51.67658 | 5.24202 | 35987 ft | 478 kts | 302° |
| 2026-05-04 13:49 | 51.71638 | 5.15624 | 36003 ft | 477 kts | 302° |
| 2026-05-04 13:50 | 51.75604 | 5.07039 | 35999 ft | 477 kts | 302° |
| 2026-05-04 13:50 | 51.79561 | 4.98451 | 35998 ft | 476 kts | 302° |
| 2026-05-04 13:51 | 51.83507 | 4.89854 | 35992 ft | 476 kts | 302° |
| 2026-05-04 13:51 | 51.87454 | 4.81226 | 35994 ft | 479 kts | 302° |
| 2026-05-04 13:52 | 51.93390 | 4.68200 | 36005 ft | 479 kts | 302° |
| 2026-05-04 13:53 | 51.96672 | 4.60966 | 36004 ft | 479 kts | 301° |
| 2026-05-04 13:53 | 52.00603 | 4.52281 | 36002 ft | 476 kts | 301° |
| 2026-05-04 13:54 | 52.06460 | 4.39278 | 35993 ft | 476 kts | 301° |
| 2026-05-04 13:55 | 52.12306 | 4.26235 | 35994 ft | 476 kts | 301° |
| 2026-05-04 13:55 | 52.18122 | 4.13195 | 36000 ft | 476 kts | 301° |
| 2026-05-04 13:56 | 52.22003 | 4.04456 | 36016 ft | 476 kts | 301° |
| 2026-05-04 13:57 | 52.27784 | 3.91381 | 36000 ft | 473 kts | 301° |
| 2026-05-04 13:58 | 52.35470 | 3.73897 | 36010 ft | 473 kts | 301° |
| 2026-05-04 13:58 | 52.41214 | 3.60750 | 36010 ft | 473 kts | 301° |
| 2026-05-04 13:59 | 52.45012 | 3.52020 | 36019 ft | 474 kts | 301° |
| 2026-05-04 14:00 | 52.50746 | 3.38785 | 36021 ft | 474 kts | 302° |
| 2026-05-04 14:00 | 52.56452 | 3.25544 | 36025 ft | 474 kts | 302° |
| 2026-05-04 14:01 | 52.60250 | 3.16694 | 36029 ft | 474 kts | 302° |
| 2026-05-04 14:02 | 52.65941 | 3.03373 | 36028 ft | 474 kts | 302° |
| 2026-05-04 14:02 | 52.69732 | 2.94460 | 36017 ft | 476 kts | 302° |
| 2026-05-04 14:03 | 52.73521 | 2.85524 | 36022 ft | 476 kts | 302° |
| 2026-05-04 14:03 | 52.77309 | 2.76554 | 36028 ft | 476 kts | 302° |
| 2026-05-04 14:04 | 52.82984 | 2.63061 | 36029 ft | 476 kts | 302° |
| 2026-05-04 14:04 | 52.86760 | 2.54043 | 36033 ft | 477 kts | 302° |
| 2026-05-04 14:05 | 52.92410 | 2.40490 | 36044 ft | 479 kts | 302° |
| 2026-05-04 14:06 | 52.96188 | 2.31384 | 36049 ft | 480 kts | 302° |
| 2026-05-04 14:06 | 52.99964 | 2.22250 | 36042 ft | 480 kts | 302° |
| 2026-05-04 14:07 | 53.03731 | 2.13108 | 36046 ft | 480 kts | 302° |
| 2026-05-04 14:07 | 53.06561 | 2.03215 | 36093 ft | 474 kts | 281° |
| 2026-05-04 14:08 | 53.07534 | 1.92367 | 36056 ft | 475 kts | 275° |
| 2026-05-04 14:08 | 53.08508 | 1.81479 | 36058 ft | 477 kts | 282° |
| 2026-05-04 14:09 | 53.10603 | 1.65331 | 36058 ft | 476 kts | 278° |
| 2026-05-04 14:10 | 53.12541 | 1.49092 | 36051 ft | 478 kts | 280° |
| 2026-05-04 14:10 | 53.13790 | 1.38189 | 36060 ft | 480 kts | 279° |
| 2026-05-04 14:11 | 53.15079 | 1.27270 | 36058 ft | 480 kts | 280° |
| 2026-05-04 14:11 | 53.16960 | 1.10889 | 36060 ft | 480 kts | 280° |
| 2026-05-04 14:12 | 53.18213 | 0.99960 | 36068 ft | 481 kts | 280° |
| 2026-05-04 14:13 | 53.20079 | 0.83419 | 36066 ft | 484 kts | 279° |
| 2026-05-04 14:13 | 53.21312 | 0.72382 | 36066 ft | 484 kts | 280° |
| 2026-05-04 14:14 | 53.22535 | 0.61334 | 36067 ft | 484 kts | 279° |
| 2026-05-04 14:14 | 53.24359 | 0.44722 | 36068 ft | 489 kts | 280° |
| 2026-05-04 14:15 | 53.26765 | 0.22392 | 36069 ft | 491 kts | 280° |
| 2026-05-04 14:16 | 53.28551 | 0.05538 | 36075 ft | 491 kts | 280° |
| 2026-05-04 14:17 | 53.30691 | -0.11218 | 36063 ft | 493 kts | 282° |
| 2026-05-04 14:18 | 53.32913 | -0.28014 | 36065 ft | 493 kts | 282° |
| 2026-05-04 14:19 | 53.35800 | -0.50426 | 36064 ft | 493 kts | 282° |
| 2026-05-04 14:19 | 53.37226 | -0.61657 | 36066 ft | 493 kts | 282° |
| 2026-05-04 14:20 | 53.38651 | -0.72890 | 36068 ft | 493 kts | 282° |
| 2026-05-04 14:20 | 53.40058 | -0.84116 | 36071 ft | 493 kts | 282° |
| 2026-05-04 14:21 | 53.42155 | -1.00989 | 36074 ft | 493 kts | 282° |
| 2026-05-04 14:21 | 53.43544 | -1.12294 | 36076 ft | 496 kts | 282° |
| 2026-05-04 14:22 | 53.44925 | -1.23618 | 36074 ft | 496 kts | 282° |
| 2026-05-04 14:22 | 53.46296 | -1.34964 | 36079 ft | 496 kts | 282° |
| 2026-05-04 14:23 | 53.48332 | -1.51985 | 36074 ft | 496 kts | 282° |
| 2026-05-04 14:24 | 53.49673 | -1.63312 | 36071 ft | 499 kts | 282° |
| 2026-05-04 14:24 | 53.51022 | -1.74812 | 36071 ft | 498 kts | 282° |
| 2026-05-04 14:25 | 53.52342 | -1.86164 | 36069 ft | 498 kts | 282° |
| 2026-05-04 14:25 | 53.54313 | -2.03306 | 36066 ft | 498 kts | 281° |
| 2026-05-04 14:26 | 53.55618 | -2.14774 | 36061 ft | 500 kts | 281° |
| 2026-05-04 14:26 | 53.56912 | -2.26262 | 36062 ft | 500 kts | 281° |
| 2026-05-04 14:27 | 53.58196 | -2.37759 | 36063 ft | 500 kts | 281° |
| 2026-05-04 14:27 | 53.59471 | -2.49282 | 36064 ft | 500 kts | 281° |
| 2026-05-04 14:28 | 53.60734 | -2.60802 | 36063 ft | 500 kts | 281° |
| 2026-05-04 14:28 | 53.61987 | -2.72338 | 36066 ft | 501 kts | 281° |
| 2026-05-04 14:29 | 53.64460 | -2.95450 | 36071 ft | 501 kts | 281° |
| 2026-05-04 14:30 | 53.65681 | -3.07017 | 36073 ft | 501 kts | 281° |
| 2026-05-04 14:31 | 53.67491 | -3.24378 | 36072 ft | 502 kts | 281° |
| 2026-05-04 14:32 | 53.69865 | -3.47557 | 36071 ft | 499 kts | 281° |
| 2026-05-04 14:32 | 53.71027 | -3.59068 | 36066 ft | 495 kts | 281° |
| 2026-05-04 14:33 | 53.72169 | -3.70506 | 36073 ft | 494 kts | 281° |
| 2026-05-04 14:33 | 53.73293 | -3.81864 | 36070 ft | 494 kts | 281° |
| 2026-05-04 14:34 | 53.74414 | -3.93319 | 36065 ft | 494 kts | 281° |
| 2026-05-04 14:34 | 53.75525 | -4.04785 | 36068 ft | 494 kts | 280° |
| 2026-05-04 14:35 | 53.76624 | -4.16244 | 36070 ft | 494 kts | 280° |
| 2026-05-04 14:35 | 53.77713 | -4.27725 | 36086 ft | 494 kts | 280° |
| 2026-05-04 14:36 | 53.78791 | -4.39207 | 36083 ft | 494 kts | 280° |
| 2026-05-04 14:36 | 53.79852 | -4.50698 | 36080 ft | 495 kts | 277° |
| 2026-05-04 14:37 | 53.80307 | -4.62319 | 36076 ft | 496 kts | 274° |
| 2026-05-04 14:37 | 53.80680 | -4.73962 | 36079 ft | 495 kts | 275° |
| 2026-05-04 14:38 | 53.81081 | -4.85586 | 36092 ft | 496 kts | 274° |
| 2026-05-04 14:38 | 53.81437 | -4.97253 | 36087 ft | 496 kts | 274° |
| 2026-05-04 14:39 | 53.81805 | -5.08890 | 36082 ft | 496 kts | 274° |
| 2026-05-04 14:39 | 53.82089 | -5.18577 | 36097 ft | 496 kts | 274° |
| 2026-05-04 14:40 | 53.82594 | -5.36053 | 36095 ft | 495 kts | 274° |
| 2026-05-04 14:40 | 53.82913 | -5.47682 | 36089 ft | 494 kts | 275° |
| 2026-05-04 14:41 | 53.84188 | -5.59036 | 36102 ft | 491 kts | 288° |
| 2026-05-04 14:42 | 53.87866 | -5.81264 | 36099 ft | 487 kts | 286° |
| 2026-05-04 14:42 | 53.89657 | -5.92297 | 36098 ft | 485 kts | 287° |
| 2026-05-04 14:43 | 53.91341 | -6.03355 | 36097 ft | 485 kts | 286° |
| 2026-05-04 14:43 | 53.93054 | -6.14426 | 36087 ft | 485 kts | 286° |
| 2026-05-04 14:44 | 53.94736 | -6.25433 | 36090 ft | 485 kts | 286° |
| 2026-05-04 14:44 | 53.96423 | -6.36569 | 36081 ft | 484 kts | 286° |
| 2026-05-04 14:45 | 53.98087 | -6.47582 | 36078 ft | 484 kts | 286° |
| 2026-05-04 14:45 | 53.99743 | -6.58667 | 36080 ft | 484 kts | 286° |
| 2026-05-04 14:46 | 54.01393 | -6.69747 | 36080 ft | 484 kts | 285° |
| 2026-05-04 14:46 | 54.03031 | -6.80857 | 36081 ft | 484 kts | 285° |
| 2026-05-04 14:47 | 54.04662 | -6.91977 | 36080 ft | 483 kts | 285° |
| 2026-05-04 14:47 | 54.06271 | -7.03034 | 36087 ft | 479 kts | 285° |
| 2026-05-04 14:48 | 54.07848 | -7.13940 | 36077 ft | 477 kts | 285° |
| 2026-05-04 14:48 | 54.09422 | -7.24910 | 36072 ft | 477 kts | 285° |
| 2026-05-04 14:49 | 54.10967 | -7.35751 | 36078 ft | 477 kts | 285° |
| 2026-05-04 14:49 | 54.12523 | -7.46745 | 36086 ft | 477 kts | 285° |
| 2026-05-04 14:50 | 54.14066 | -7.57731 | 36087 ft | 477 kts | 284° |
| 2026-05-04 14:50 | 54.15601 | -7.68736 | 36085 ft | 477 kts | 284° |
| 2026-05-04 14:51 | 54.17125 | -7.79746 | 36086 ft | 477 kts | 284° |
| 2026-05-04 14:51 | 54.18638 | -7.90751 | 36093 ft | 477 kts | 284° |
| 2026-05-04 14:52 | 54.20143 | -8.01784 | 36090 ft | 476 kts | 284° |
| 2026-05-04 14:52 | 54.21631 | -8.12776 | 36098 ft | 475 kts | 284° |
| 2026-05-04 14:53 | 54.23108 | -8.23761 | 36098 ft | 472 kts | 284° |
| 2026-05-04 14:53 | 54.24558 | -8.34635 | 36097 ft | 471 kts | 284° |
| 2026-05-04 14:54 | 54.25994 | -8.45473 | 36129 ft | 470 kts | 284° |
| 2026-05-04 14:54 | 54.27438 | -8.56458 | 36127 ft | 470 kts | 283° |
| 2026-05-04 14:55 | 54.28854 | -8.67324 | 36126 ft | 470 kts | 283° |
| 2026-05-04 14:55 | 54.30269 | -8.78253 | 36125 ft | 470 kts | 283° |
| 2026-05-04 14:56 | 54.31676 | -8.89204 | 36123 ft | 470 kts | 283° |
| 2026-05-04 14:56 | 54.33070 | -9.00140 | 36120 ft | 471 kts | 283° |
| 2026-05-04 14:57 | 54.34459 | -9.11123 | 36111 ft | 470 kts | 283° |
| 2026-05-04 14:57 | 54.35829 | -9.22052 | 36114 ft | 469 kts | 283° |
| 2026-05-04 14:58 | 54.37195 | -9.33019 | 36113 ft | 470 kts | 283° |
| 2026-05-04 14:58 | 54.38548 | -9.43975 | 36122 ft | 470 kts | 283° |
| 2026-05-04 14:59 | 54.39889 | -9.54921 | 36123 ft | 467 kts | 282° |
| 2026-05-04 15:00 | 54.41876 | -9.71302 | 36124 ft | 467 kts | 282° |
| 2026-05-04 15:00 | 54.43187 | -9.82223 | 36125 ft | 466 kts | 282° |
| 2026-05-04 15:01 | 54.45131 | -9.98583 | 36128 ft | 467 kts | 282° |
| 2026-05-04 15:01 | 54.46412 | -10.09464 | 36126 ft | 467 kts | 283° |
| 2026-05-04 15:02 | 54.47407 | -10.14815 | 36169 ft | 467 kts | 294° |
| 2026-05-04 15:02 | 54.48860 | -10.19734 | 36145 ft | 466 kts | 300° |
| 2026-05-04 15:02 | 54.52293 | -10.29279 | 36135 ft | 466 kts | 300° |
| 2026-05-04 15:03 | 54.55273 | -10.39174 | 36152 ft | 466 kts | 297° |
| 2026-05-04 15:03 | 54.58362 | -10.48972 | 36137 ft | 463 kts | 298° |
| 2026-05-04 15:04 | 54.61397 | -10.58774 | 36139 ft | 463 kts | 297° |
| 2026-05-04 15:04 | 54.64406 | -10.68538 | 36139 ft | 463 kts | 298° |
| 2026-05-04 15:05 | 54.67436 | -10.78355 | 36136 ft | 463 kts | 297° |
| 2026-05-04 15:05 | 54.70446 | -10.88206 | 36132 ft | 463 kts | 297° |
| 2026-05-04 15:06 | 54.73459 | -10.98061 | 36131 ft | 463 kts | 297° |
| 2026-05-04 15:07 | 54.77952 | -11.12870 | 36137 ft | 461 kts | 296° |
| 2026-05-04 15:07 | 54.80924 | -11.22715 | 36137 ft | 461 kts | 296° |
| 2026-05-04 15:08 | 54.83887 | -11.32567 | 36136 ft | 461 kts | 296° |
| 2026-05-04 15:08 | 54.86848 | -11.42454 | 36135 ft | 461 kts | 296° |
| 2026-05-04 15:09 | 54.89797 | -11.52343 | 36139 ft | 461 kts | 296° |
| 2026-05-04 15:09 | 54.92734 | -11.62233 | 36141 ft | 461 kts | 296° |
| 2026-05-04 15:10 | 54.97136 | -11.77135 | 36138 ft | 460 kts | 296° |
| 2026-05-04 15:11 | 55.01464 | -11.91880 | 36134 ft | 457 kts | 296° |
| 2026-05-04 15:11 | 55.04363 | -12.01806 | 36132 ft | 456 kts | 296° |
| 2026-05-04 15:12 | 55.07234 | -12.11680 | 36132 ft | 456 kts | 296° |
| 2026-05-04 15:12 | 55.10094 | -12.21558 | 36126 ft | 456 kts | 295° |
| 2026-05-04 15:13 | 55.12931 | -12.31398 | 36127 ft | 456 kts | 295° |
| 2026-05-04 15:13 | 55.15780 | -12.41318 | 36140 ft | 457 kts | 295° |
| 2026-05-04 15:14 | 55.18618 | -12.51248 | 36139 ft | 455 kts | 295° |
| 2026-05-04 15:14 | 55.21440 | -12.61161 | 36140 ft | 455 kts | 295° |
| 2026-05-04 15:15 | 55.24261 | -12.71110 | 36137 ft | 456 kts | 295° |
| 2026-05-04 15:15 | 55.27068 | -12.81057 | 36134 ft | 456 kts | 295° |
| 2026-05-04 15:16 | 55.31277 | -12.96048 | 36144 ft | 456 kts | 295° |
| 2026-05-04 15:17 | 55.35466 | -13.11069 | 36144 ft | 456 kts | 294° |
| 2026-05-04 15:17 | 55.39635 | -13.26112 | 36144 ft | 456 kts | 294° |
| 2026-05-04 15:18 | 55.42406 | -13.36168 | 36143 ft | 457 kts | 294° |
| 2026-05-04 15:19 | 55.46549 | -13.51283 | 36140 ft | 458 kts | 294° |
| 2026-05-04 15:19 | 55.50682 | -13.66461 | 36142 ft | 458 kts | 294° |
| 2026-05-04 15:20 | 55.53432 | -13.76620 | 36158 ft | 458 kts | 294° |
| 2026-05-04 15:20 | 55.56165 | -13.86756 | 36145 ft | 458 kts | 294° |
| 2026-05-04 15:21 | 55.58895 | -13.96930 | 36150 ft | 458 kts | 294° |
| 2026-05-04 15:22 | 55.62977 | -14.12228 | 36139 ft | 458 kts | 294° |
| 2026-05-04 15:22 | 55.67047 | -14.27581 | 36147 ft | 460 kts | 294° |
| 2026-05-04 15:23 | 55.69735 | -14.37781 | 36141 ft | 460 kts | 294° |
| 2026-05-04 15:23 | 55.72447 | -14.48117 | 36160 ft | 460 kts | 294° |
| 2026-05-04 15:24 | 55.77808 | -14.68688 | 36150 ft | 461 kts | 294° |
| 2026-05-04 15:25 | 55.80486 | -14.79037 | 36157 ft | 461 kts | 294° |
| 2026-05-04 15:26 | 55.84487 | -14.94587 | 36156 ft | 461 kts | 294° |
| 2026-05-04 15:26 | 55.88029 | -15.08447 | 36159 ft | 461 kts | 294° |
| 2026-05-04 15:27 | 55.91941 | -15.23851 | 36159 ft | 460 kts | 293° |
| 2026-05-04 15:28 | 55.95883 | -15.39484 | 36167 ft | 460 kts | 293° |
| 2026-05-04 15:29 | 55.99806 | -15.55151 | 36170 ft | 461 kts | 293° |
| 2026-05-04 15:30 | 56.08876 | -15.91807 | 36179 ft | 461 kts | 292° |
| 2026-05-04 15:31 | 56.12732 | -16.07581 | 36176 ft | 460 kts | 292° |
| 2026-05-04 15:32 | 56.19115 | -16.33942 | 36180 ft | 461 kts | 292° |
| 2026-05-04 15:34 | 56.25430 | -16.60341 | 36180 ft | 461 kts | 292° |
| 2026-05-04 15:34 | 56.29200 | -16.76258 | 36181 ft | 461 kts | 292° |
| 2026-05-04 15:35 | 56.32951 | -16.92212 | 36181 ft | 461 kts | 292° |
| 2026-05-04 15:36 | 56.36681 | -17.08191 | 36185 ft | 461 kts | 292° |
| 2026-05-04 15:36 | 56.39155 | -17.18859 | 36185 ft | 461 kts | 292° |
| 2026-05-04 15:37 | 56.41625 | -17.29561 | 36190 ft | 461 kts | 292° |
| 2026-05-04 15:37 | 56.44080 | -17.40257 | 36179 ft | 461 kts | 292° |
| 2026-05-04 15:38 | 56.46527 | -17.50967 | 36177 ft | 461 kts | 292° |
| 2026-05-04 15:38 | 56.48966 | -17.61698 | 36196 ft | 461 kts | 292° |
| 2026-05-04 15:39 | 56.51392 | -17.72424 | 36198 ft | 461 kts | 292° |
| 2026-05-04 15:40 | 56.55014 | -17.88541 | 36194 ft | 461 kts | 292° |
| 2026-05-04 15:40 | 56.57418 | -17.99307 | 36196 ft | 461 kts | 291° |
| 2026-05-04 15:41 | 56.59814 | -18.10097 | 36198 ft | 461 kts | 291° |
| 2026-05-04 15:41 | 56.62200 | -18.20894 | 36187 ft | 460 kts | 291° |
| 2026-05-04 15:42 | 56.64572 | -18.31683 | 36191 ft | 460 kts | 291° |
| 2026-05-04 15:42 | 56.66939 | -18.42505 | 36191 ft | 460 kts | 291° |
| 2026-05-04 15:43 | 56.69279 | -18.53261 | 36193 ft | 460 kts | 291° |
| 2026-05-04 15:43 | 56.71627 | -18.64108 | 36192 ft | 460 kts | 291° |
| 2026-05-04 15:44 | 56.73964 | -18.74962 | 36197 ft | 460 kts | 291° |
| 2026-05-04 15:44 | 56.76288 | -18.85816 | 36197 ft | 460 kts | 291° |
| 2026-05-04 15:45 | 56.78609 | -18.96711 | 36210 ft | 460 kts | 291° |
| 2026-05-04 15:45 | 56.80918 | -19.07608 | 36200 ft | 460 kts | 291° |
| 2026-05-04 15:46 | 56.83211 | -19.18489 | 36199 ft | 460 kts | 290° |
| 2026-05-04 15:46 | 56.85498 | -19.29402 | 36199 ft | 460 kts | 290° |
| 2026-05-04 15:47 | 56.87778 | -19.40334 | 36207 ft | 460 kts | 290° |
| 2026-05-04 15:47 | 56.90048 | -19.51279 | 36207 ft | 460 kts | 290° |
| 2026-05-04 15:48 | 56.92303 | -19.62214 | 36210 ft | 460 kts | 290° |
| 2026-05-04 15:48 | 56.95679 | -19.78695 | 36213 ft | 460 kts | 290° |
| 2026-05-04 15:49 | 56.97914 | -19.89682 | 36214 ft | 460 kts | 290° |
| 2026-05-04 15:49 | 57.00046 | -20.00738 | 36243 ft | 460 kts | 282° |
| 2026-05-04 15:50 | 57.00701 | -20.12393 | 36239 ft | 461 kts | 271° |
| 2026-05-04 15:50 | 57.00839 | -20.24148 | 36219 ft | 461 kts | 275° |
| 2026-05-04 15:51 | 57.01437 | -20.35840 | 36217 ft | 460 kts | 274° |
| 2026-05-04 15:51 | 57.01784 | -20.47569 | 36233 ft | 460 kts | 274° |
| 2026-05-04 15:52 | 57.02242 | -20.59291 | 36232 ft | 460 kts | 274° |
| 2026-05-04 15:52 | 57.02632 | -20.71036 | 36232 ft | 460 kts | 274° |
| 2026-05-04 15:53 | 57.03032 | -20.82678 | 36231 ft | 460 kts | 274° |
| 2026-05-04 15:53 | 57.03415 | -20.94408 | 36237 ft | 460 kts | 274° |
| 2026-05-04 15:54 | 57.03790 | -21.06143 | 36222 ft | 460 kts | 274° |
| 2026-05-04 15:54 | 57.04154 | -21.17892 | 36228 ft | 462 kts | 274° |
| 2026-05-04 15:55 | 57.04507 | -21.29675 | 36233 ft | 462 kts | 273° |
| 2026-05-04 15:55 | 57.04850 | -21.41436 | 36237 ft | 462 kts | 273° |
| 2026-05-04 15:56 | 57.05181 | -21.53218 | 36240 ft | 462 kts | 273° |
| 2026-05-04 15:56 | 57.05501 | -21.65004 | 36228 ft | 462 kts | 273° |
| 2026-05-04 15:57 | 57.05810 | -21.76781 | 36228 ft | 462 kts | 273° |
| 2026-05-04 15:57 | 57.06110 | -21.88638 | 36234 ft | 463 kts | 272° |
| 2026-05-04 15:58 | 57.06398 | -22.00437 | 36236 ft | 462 kts | 272° |
| 2026-05-04 15:58 | 57.06674 | -22.12239 | 36253 ft | 462 kts | 272° |
| 2026-05-04 15:59 | 57.06938 | -22.24021 | 36247 ft | 461 kts | 272° |
| 2026-05-04 15:59 | 57.07192 | -22.35803 | 36242 ft | 461 kts | 272° |
| 2026-05-04 16:00 | 57.07435 | -22.47592 | 36242 ft | 464 kts | 272° |
| 2026-05-04 16:00 | 57.07668 | -22.59448 | 36233 ft | 464 kts | 272° |
| 2026-05-04 16:01 | 57.07889 | -22.71301 | 36252 ft | 464 kts | 272° |
| 2026-05-04 16:01 | 57.08099 | -22.83102 | 36251 ft | 464 kts | 272° |
| 2026-05-04 16:02 | 57.08299 | -22.95026 | 36258 ft | 464 kts | 272° |
| 2026-05-04 16:03 | 57.08578 | -23.12877 | 36252 ft | 467 kts | 271° |
| 2026-05-04 16:03 | 57.08749 | -23.24730 | 36248 ft | 467 kts | 271° |
| 2026-05-04 16:04 | 57.08910 | -23.36662 | 36254 ft | 467 kts | 271° |
| 2026-05-04 16:04 | 57.09130 | -23.54568 | 36261 ft | 467 kts | 271° |
| 2026-05-04 16:05 | 57.09262 | -23.66507 | 36262 ft | 467 kts | 271° |
| 2026-05-04 16:06 | 57.09441 | -23.84474 | 36268 ft | 468 kts | 271° |
| 2026-05-04 16:07 | 57.09638 | -24.08431 | 36274 ft | 469 kts | 270° |
| 2026-05-04 16:08 | 57.09790 | -24.32405 | 36278 ft | 469 kts | 270° |
| 2026-05-04 16:09 | 57.09915 | -24.62335 | 36278 ft | 468 kts | 270° |
| 2026-05-04 16:10 | 57.09964 | -24.86281 | 36273 ft | 468 kts | 270° |
| 2026-05-04 16:11 | 57.09968 | -25.10232 | 36282 ft | 471 kts | 270° |
| 2026-05-04 16:12 | 57.09893 | -25.44402 | 36280 ft | 471 kts | 269° |
| 2026-05-04 16:13 | 57.09785 | -25.68507 | 36279 ft | 471 kts | 269° |
| 2026-05-04 16:14 | 57.09631 | -25.92536 | 36288 ft | 470 kts | 269° |
| 2026-05-04 16:16 | 57.09374 | -26.22556 | 36288 ft | 470 kts | 269° |
| 2026-05-04 16:17 | 57.09044 | -26.52626 | 36299 ft | 473 kts | 269° |
| 2026-05-04 16:18 | 57.08726 | -26.76877 | 36296 ft | 473 kts | 269° |
| 2026-05-04 16:19 | 57.08266 | -27.06974 | 36294 ft | 470 kts | 268° |
| 2026-05-04 16:20 | 57.07736 | -27.36945 | 36282 ft | 469 kts | 268° |
| 2026-05-04 16:22 | 57.07134 | -27.66924 | 36290 ft | 469 kts | 268° |
| 2026-05-04 16:23 | 57.06316 | -28.02962 | 36298 ft | 473 kts | 268° |
| 2026-05-04 16:25 | 57.05389 | -28.39160 | 36380 ft | 472 kts | 267° |
| 2026-05-04 16:26 | 57.04714 | -28.63259 | 37562 ft | 474 kts | 267° |
| 2026-05-04 16:26 | 57.04175 | -28.81406 | 38316 ft | 473 kts | 267° |
| 2026-05-04 16:28 | 57.03231 | -29.11252 | 38308 ft | 466 kts | 267° |
| 2026-05-04 16:29 | 57.01797 | -29.52809 | 38305 ft | 466 kts | 267° |
| 2026-05-04 16:31 | 57.00688 | -29.82500 | 38323 ft | 467 kts | 267° |
| 2026-05-04 16:32 | 57.00747 | -30.18078 | 38333 ft | 466 kts | 275° |
| 2026-05-04 16:33 | 57.01609 | -30.41773 | 38332 ft | 465 kts | 275° |
| 2026-05-04 16:34 | 57.02234 | -30.59556 | 38331 ft | 465 kts | 275° |
| 2026-05-04 16:35 | 57.03439 | -30.95118 | 38330 ft | 465 kts | 274° |
| 2026-05-04 16:36 | 57.03997 | -31.12803 | 38328 ft | 464 kts | 274° |
| 2026-05-04 16:37 | 57.04536 | -31.30647 | 38328 ft | 465 kts | 274° |
| 2026-05-04 16:38 | 57.05209 | -31.54238 | 38338 ft | 463 kts | 274° |
| 2026-05-04 16:39 | 57.05988 | -31.83774 | 38336 ft | 463 kts | 274° |
| 2026-05-04 16:40 | 57.06562 | -32.07418 | 38339 ft | 463 kts | 274° |
| 2026-05-04 16:41 | 57.07217 | -32.36994 | 38333 ft | 463 kts | 274° |
| 2026-05-04 16:43 | 57.07801 | -32.66505 | 38332 ft | 461 kts | 273° |
| 2026-05-04 16:43 | 57.08117 | -32.84185 | 38331 ft | 462 kts | 273° |
| 2026-05-04 16:45 | 57.08676 | -33.19582 | 38334 ft | 462 kts | 273° |
| 2026-05-04 16:46 | 57.09065 | -33.49092 | 38332 ft | 462 kts | 273° |
| 2026-05-04 16:47 | 57.09327 | -33.72718 | 38330 ft | 462 kts | 272° |
| 2026-05-04 16:48 | 57.09544 | -33.96354 | 38334 ft | 462 kts | 272° |
| 2026-05-04 16:49 | 57.09716 | -34.19922 | 38331 ft | 463 kts | 272° |
| 2026-05-04 16:50 | 57.09845 | -34.43603 | 38337 ft | 463 kts | 272° |
| 2026-05-04 16:51 | 57.09912 | -34.61324 | 38330 ft | 462 kts | 272° |
| 2026-05-04 16:52 | 57.09962 | -34.84955 | 38326 ft | 462 kts | 272° |
| 2026-05-04 16:53 | 57.09971 | -35.02679 | 38327 ft | 462 kts | 271° |
| 2026-05-04 16:54 | 57.09944 | -35.26325 | 38312 ft | 462 kts | 271° |
| 2026-05-04 16:55 | 57.09820 | -35.61748 | 38323 ft | 461 kts | 271° |
| 2026-05-04 16:56 | 57.09640 | -35.91215 | 38319 ft | 461 kts | 271° |
| 2026-05-04 16:57 | 57.09517 | -36.06884 | 38310 ft | 460 kts | 271° |
| 2026-05-04 16:58 | 57.09295 | -36.30397 | 38307 ft | 460 kts | 271° |
| 2026-05-04 17:00 | 57.08879 | -36.65633 | 38297 ft | 459 kts | 270° |
| 2026-05-04 17:01 | 57.08461 | -36.94763 | 38289 ft | 454 kts | 270° |
| 2026-05-04 17:02 | 57.08080 | -37.17958 | 38291 ft | 454 kts | 270° |
| 2026-05-04 17:03 | 57.07765 | -37.35374 | 38291 ft | 454 kts | 270° |
| 2026-05-04 17:03 | 57.07428 | -37.52730 | 38301 ft | 451 kts | 270° |
| 2026-05-04 17:04 | 57.06943 | -37.75745 | 38286 ft | 450 kts | 270° |
| 2026-05-04 17:05 | 57.06419 | -37.98664 | 38293 ft | 450 kts | 270° |
| 2026-05-04 17:06 | 57.05996 | -38.15920 | 38264 ft | 450 kts | 270° |
| 2026-05-04 17:07 | 57.05601 | -38.31217 | 38279 ft | 448 kts | 270° |
| 2026-05-04 17:07 | 57.05243 | -38.44484 | 38271 ft | 448 kts | 270° |
| 2026-05-04 17:08 | 57.04761 | -38.61615 | 38268 ft | 448 kts | 270° |
| 2026-05-04 17:09 | 57.04426 | -38.73042 | 38261 ft | 448 kts | 270° |
| 2026-05-04 17:09 | 57.04081 | -38.84460 | 38267 ft | 448 kts | 270° |
| 2026-05-04 17:10 | 57.03173 | -39.13001 | 38260 ft | 448 kts | 269° |
| 2026-05-04 17:11 | 57.02792 | -39.24409 | 38262 ft | 448 kts | 269° |
| 2026-05-04 17:12 | 57.02199 | -39.41553 | 38247 ft | 448 kts | 269° |
| 2026-05-04 17:13 | 57.01160 | -39.70112 | 38248 ft | 451 kts | 269° |
| 2026-05-04 17:14 | 57.00277 | -39.93044 | 38239 ft | 451 kts | 269° |
| 2026-05-04 17:15 | 56.99395 | -40.10225 | 38245 ft | 451 kts | 267° |
| 2026-05-04 17:16 | 56.98035 | -40.33109 | 38240 ft | 453 kts | 267° |
| 2026-05-04 17:17 | 56.96631 | -40.55959 | 38239 ft | 452 kts | 267° |
| 2026-05-04 17:18 | 56.95179 | -40.78845 | 38228 ft | 452 kts | 266° |
| 2026-05-04 17:19 | 56.93689 | -41.01671 | 38221 ft | 449 kts | 266° |
| 2026-05-04 17:20 | 56.92180 | -41.24131 | 38197 ft | 441 kts | 266° |
| 2026-05-04 17:20 | 56.91031 | -41.40842 | 38193 ft | 441 kts | 266° |
| 2026-05-04 17:21 | 56.89464 | -41.63102 | 38181 ft | 441 kts | 265° |
| 2026-05-04 17:22 | 56.88669 | -41.74174 | 38215 ft | 437 kts | 265° |
| 2026-05-04 17:23 | 56.87075 | -41.95981 | 38178 ft | 430 kts | 264° |
| 2026-05-04 17:24 | 56.85862 | -42.12221 | 38169 ft | 430 kts | 264° |
| 2026-05-04 17:25 | 56.84212 | -42.33860 | 38137 ft | 430 kts | 264° |
| 2026-05-04 17:26 | 56.82516 | -42.55570 | 38161 ft | 432 kts | 263° |
| 2026-05-04 17:27 | 56.80341 | -42.82734 | 38154 ft | 433 kts | 263° |
| 2026-05-04 17:28 | 56.78552 | -43.04514 | 38128 ft | 435 kts | 262° |
| 2026-05-04 17:29 | 56.75769 | -43.37473 | 38131 ft | 440 kts | 262° |
| 2026-05-04 17:31 | 56.73373 | -43.65016 | 38120 ft | 440 kts | 262° |
| 2026-05-04 17:32 | 56.72722 | -43.72386 | 38097 ft | 441 kts | 261° |